createdAt,value
2018-04-27T00:00:43.619Z,10.70
2018-04-27T00:03:13.856Z,10.60
2018-04-27T00:05:44.749Z,10.50
2018-04-27T00:08:15.171Z,10.50
2018-04-27T00:10:45.080Z,10.60
2018-04-27T00:13:14.841Z,10.70
2018-04-27T00:15:44.507Z,10.90
2018-04-27T00:18:14.625Z,10.90
2018-04-27T00:20:44.262Z,10.90
2018-04-27T00:23:15.387Z,10.80
2018-04-27T00:25:44.916Z,10.80
2018-04-27T00:28:14.577Z,10.90
2018-04-27T00:30:44.261Z,10.80
2018-04-27T00:33:14.597Z,10.70
2018-04-27T00:35:44.835Z,10.70
2018-04-27T00:38:14.681Z,10.80
2018-04-27T00:40:44.289Z,10.80
2018-04-27T00:43:14.144Z,10.80
2018-04-27T00:45:44.847Z,10.70
2018-04-27T00:48:15.661Z,10.60
2018-04-27T00:50:45.404Z,10.50
2018-04-27T00:53:16.394Z,10.60
2018-04-27T00:55:46.113Z,10.40
2018-04-27T00:58:15.744Z,10.40
2018-04-27T01:00:45.547Z,10.30
2018-04-27T01:03:15.039Z,10.30
2018-04-27T01:05:44.647Z,10.30
2018-04-27T01:08:14.481Z,10.40
2018-04-27T01:10:44.697Z,10.30
2018-04-27T01:13:14.389Z,10.30
2018-04-27T01:15:44.048Z,10.30
2018-04-27T01:18:14.609Z,10.30
2018-04-27T01:20:46.810Z,10.30
2018-04-27T01:23:17.166Z,10.30
2018-04-27T01:25:46.831Z,10.20
2018-04-27T01:28:17.603Z,10.20
2018-04-27T01:30:47.249Z,10.30
2018-04-27T01:33:17.609Z,10.40
2018-04-27T01:35:47.340Z,10.30
2018-04-27T01:38:17.151Z,10.30
2018-04-27T01:40:46.839Z,10.30
2018-04-27T01:43:17.233Z,10.30
2018-04-27T01:45:47.077Z,10.30
2018-04-27T01:48:17.523Z,10.30
2018-04-27T01:50:48.923Z,10.30
2018-04-27T01:53:18.487Z,10.30
2018-04-27T01:55:48.405Z,10.20
2018-04-27T01:58:19.034Z,10.10
2018-04-27T02:00:49.537Z,9.90
2018-04-27T02:03:19.010Z,9.90
2018-04-27T02:05:49.504Z,9.70
2018-04-27T02:08:19.182Z,9.70
2018-04-27T02:10:49.488Z,9.70
2018-04-27T02:13:19.148Z,9.60
2018-04-27T02:15:50.078Z,9.60
2018-04-27T02:18:19.861Z,9.60
2018-04-27T02:20:51.556Z,9.40
2018-04-27T02:23:22.621Z,9.40
2018-04-27T02:25:53.683Z,9.30
2018-04-27T02:28:24.325Z,9.30
2018-04-27T02:30:55.015Z,9.30
2018-04-27T02:33:24.723Z,9.20
2018-04-27T02:35:54.212Z,9.30
2018-04-27T02:38:23.751Z,9.40
2018-04-27T02:40:53.557Z,9.50
2018-04-27T02:43:23.153Z,9.70
2018-04-27T02:45:52.708Z,9.80
2018-04-27T02:48:22.334Z,9.90
2018-04-27T02:50:51.816Z,9.80
2018-04-27T02:53:22.140Z,9.60
2018-04-27T02:55:52.533Z,9.50
2018-04-27T02:58:22.056Z,9.50
2018-04-27T03:00:52.707Z,9.40
2018-04-27T03:03:23.089Z,9.50
2018-04-27T03:05:52.971Z,9.40
2018-04-27T03:08:22.664Z,9.50
2018-04-27T03:10:53.011Z,9.50
2018-04-27T03:13:22.619Z,9.40
2018-04-27T03:15:58.574Z,9.50
2018-04-27T03:18:29.251Z,9.60
2018-04-27T03:20:59.999Z,9.50
2018-04-27T03:23:30.513Z,9.50
2018-04-27T03:26:00.321Z,9.50
2018-04-27T03:28:29.796Z,9.60
2018-04-27T03:31:04.006Z,9.60
2018-04-27T03:33:34.537Z,9.60
2018-04-27T03:36:05.069Z,9.60
2018-04-27T03:38:34.563Z,9.60
2018-04-27T03:41:05.232Z,9.50
2018-04-27T03:43:34.930Z,9.50
2018-04-27T03:46:05.031Z,9.50
2018-04-27T03:48:36.141Z,9.40
2018-04-27T03:51:05.910Z,9.40
2018-04-27T03:53:36.073Z,9.50
2018-04-27T03:56:07.181Z,9.50
2018-04-27T03:58:36.905Z,9.40
2018-04-27T04:01:24.523Z,9.50
2018-04-27T04:04:11.827Z,9.50
2018-04-27T04:06:42.336Z,9.40
2018-04-27T04:09:12.810Z,9.40
2018-04-27T04:11:42.631Z,9.40
2018-04-27T04:14:12.140Z,9.40
2018-04-27T04:16:41.726Z,9.50
2018-04-27T04:19:11.560Z,9.50
2018-04-27T04:21:41.181Z,9.50
2018-04-27T04:24:11.629Z,9.70
2018-04-27T04:26:42.137Z,9.70
2018-04-27T04:29:11.819Z,9.60
2018-04-27T04:31:41.587Z,9.60
2018-04-27T04:34:11.941Z,9.90
2018-04-27T04:36:41.567Z,9.80
2018-04-27T04:39:11.081Z,10.10
2018-04-27T04:41:40.827Z,10.30
2018-04-27T04:44:11.206Z,10.70
2018-04-27T04:46:40.694Z,10.60
2018-04-27T04:49:10.233Z,10.80
2018-04-27T04:51:39.946Z,10.90
2018-04-27T04:54:09.597Z,11.20
2018-04-27T04:56:39.762Z,11.40
2018-04-27T04:59:09.245Z,11.70
2018-04-27T05:01:42.034Z,12.20
2018-04-27T05:04:14.219Z,12.70
2018-04-27T05:06:47.138Z,13.30
2018-04-27T05:09:17.845Z,13.70
2018-04-27T05:11:48.651Z,14.10
2018-04-27T05:14:18.958Z,14.60
2018-04-27T05:16:49.378Z,15.40
2018-04-27T05:19:19.732Z,15.80
2018-04-27T05:21:49.811Z,15.80
2018-04-27T05:24:20.330Z,16.70
2018-04-27T05:26:50.571Z,16.60
2018-04-27T05:29:20.868Z,17.20
2018-04-27T05:31:50.869Z,17.20
2018-04-27T05:34:20.416Z,17.30
2018-04-27T05:36:50.782Z,17.80
2018-04-27T05:39:20.474Z,17.70
2018-04-27T05:41:50.065Z,18.30
2018-04-27T05:44:19.784Z,18.50
2018-04-27T05:46:49.650Z,18.90
2018-04-27T05:49:19.409Z,19.20
2018-04-27T05:51:49.091Z,19.60
2018-04-27T05:54:18.836Z,19.90
2018-04-27T05:56:48.769Z,20.10
2018-04-27T05:59:19.383Z,20.40
2018-04-27T06:01:49.826Z,21.00
2018-04-27T06:04:19.567Z,20.90
2018-04-27T06:06:49.381Z,21.20
2018-04-27T06:09:19.126Z,21.30
2018-04-27T06:11:49.386Z,21.50
2018-04-27T06:14:18.983Z,21.50
2018-04-27T06:16:49.534Z,21.80
2018-04-27T06:19:19.125Z,21.80
2018-04-27T06:21:48.853Z,22.10
2018-04-27T06:24:18.630Z,22.30
2018-04-27T06:26:48.389Z,22.30
2018-04-27T06:29:18.072Z,22.10
2018-04-27T06:31:48.241Z,21.50
2018-04-27T06:34:18.568Z,21.90
2018-04-27T06:36:48.432Z,21.90
2018-04-27T06:39:18.051Z,22.30
2018-04-27T06:41:55.928Z,22.60
2018-04-27T06:44:26.390Z,23.00
2018-04-27T06:46:56.273Z,22.90
2018-04-27T06:49:26.026Z,22.70
2018-04-27T06:51:56.122Z,22.40
2018-04-27T06:54:26.651Z,22.50
2018-04-27T06:56:57.104Z,22.60
2018-04-27T06:59:26.959Z,22.60
2018-04-27T07:01:56.623Z,22.70
2018-04-27T07:04:26.623Z,23.00
2018-04-27T07:06:57.349Z,23.10
2018-04-27T07:09:27.195Z,23.70
2018-04-27T07:11:57.233Z,24.40
2018-04-27T07:14:27.943Z,25.00
2018-04-27T07:16:57.707Z,25.00
2018-04-27T07:19:27.478Z,25.10
2018-04-27T07:21:57.296Z,25.20
2018-04-27T07:24:27.009Z,24.90
2018-04-27T07:26:56.589Z,24.70
2018-04-27T07:29:26.323Z,24.80
2018-04-27T07:32:05.201Z,25.50
2018-04-27T07:34:34.719Z,26.20
2018-04-27T07:37:04.471Z,26.60
2018-04-27T07:39:34.807Z,25.80
2018-04-27T07:42:04.639Z,26.00
2018-04-27T07:44:35.361Z,26.20
2018-04-27T07:47:06.449Z,26.80
2018-04-27T07:49:36.718Z,26.70
2018-04-27T07:52:06.826Z,26.60
2018-04-27T07:54:38.111Z,26.10
2018-04-27T07:57:08.058Z,25.40
2018-04-27T07:59:38.309Z,25.60
2018-04-27T08:02:07.925Z,26.40
2018-04-27T08:04:40.003Z,27.30
2018-04-27T08:07:09.805Z,28.20
2018-04-27T08:09:40.949Z,28.10
2018-04-27T08:12:11.366Z,28.30
2018-04-27T08:14:41.977Z,28.60
2018-04-27T08:17:11.714Z,28.50
2018-04-27T08:19:42.339Z,29.40
2018-04-27T08:22:12.266Z,29.40
2018-04-27T08:24:43.003Z,30.10
2018-04-27T08:27:13.056Z,30.00
2018-04-27T08:29:44.684Z,30.20
2018-04-27T08:32:14.907Z,30.40
2018-04-27T08:34:45.424Z,30.90
2018-04-27T08:37:15.178Z,31.40
2018-04-27T08:39:46.034Z,31.40
2018-04-27T08:42:15.778Z,31.30
2018-04-27T08:44:45.517Z,31.10
2018-04-27T08:47:15.098Z,31.40
2018-04-27T08:49:44.715Z,31.60
2018-04-27T08:52:14.424Z,31.50
2018-04-27T08:54:44.266Z,31.60
2018-04-27T08:57:13.966Z,31.80
2018-04-27T08:59:45.442Z,32.10
2018-04-27T09:02:15.828Z,33.30
2018-04-27T09:04:45.412Z,33.20
2018-04-27T09:07:15.123Z,33.30
2018-04-27T09:09:46.033Z,33.90
2018-04-27T09:12:18.968Z,33.90
2018-04-27T09:14:49.742Z,33.80
2018-04-27T09:17:20.304Z,33.60
2018-04-27T09:19:52.186Z,34.10
2018-04-27T09:22:22.225Z,34.10
2018-04-27T09:24:51.763Z,34.60
2018-04-27T09:27:21.451Z,33.80
2018-04-27T09:29:51.214Z,33.20
2018-04-27T09:32:20.818Z,33.40
2018-04-27T09:34:50.320Z,34.30
2018-04-27T09:37:19.926Z,34.90
2018-04-27T09:39:54.241Z,35.40
2018-04-27T09:42:29.193Z,35.30
2018-04-27T09:45:03.464Z,35.40
2018-04-27T09:47:55.227Z,35.70
2018-04-27T09:50:38.640Z,35.90
2018-04-27T09:53:09.953Z,35.80
2018-04-27T09:55:40.101Z,36.40
2018-04-27T09:58:10.488Z,36.80
2018-04-27T10:00:40.192Z,36.70
2018-04-27T10:03:10.018Z,36.60
2018-04-27T10:05:45.016Z,36.60
2018-04-27T10:08:14.767Z,36.80
2018-04-27T10:10:44.329Z,36.90
2018-04-27T10:13:14.794Z,36.10
2018-04-27T10:15:44.406Z,36.10
2018-04-27T10:18:15.122Z,36.10
2018-04-27T10:20:44.779Z,36.30
2018-04-27T10:23:14.567Z,36.00
2018-04-27T10:25:44.487Z,35.50
2018-04-27T10:28:14.003Z,34.80
2018-04-27T10:30:43.791Z,34.50
2018-04-27T10:33:13.618Z,33.70
2018-04-27T10:35:43.303Z,33.40
2018-04-27T10:38:12.854Z,33.50
2018-04-27T10:40:54.739Z,34.00
2018-04-27T10:43:24.312Z,34.40
2018-04-27T10:45:53.865Z,33.90
2018-04-27T10:48:24.005Z,34.30
2018-04-27T10:50:53.875Z,34.80
2018-04-27T10:53:24.612Z,35.70
2018-04-27T10:55:54.325Z,35.60
2018-04-27T10:58:24.844Z,35.60
2018-04-27T11:00:54.626Z,35.50
2018-04-27T11:03:24.423Z,35.70
2018-04-27T11:05:55.120Z,36.80
2018-04-27T11:08:25.811Z,36.70
2018-04-27T11:10:55.463Z,36.50
2018-04-27T11:13:25.226Z,36.30
2018-04-27T11:15:54.966Z,35.70
2018-04-27T11:18:25.599Z,32.90
2018-04-27T11:20:55.233Z,32.70
2018-04-27T11:23:25.019Z,32.10
2018-04-27T11:25:55.782Z,32.00
2018-04-27T11:28:26.197Z,32.30
2018-04-27T11:30:55.904Z,32.20
2018-04-27T11:33:25.700Z,32.90
2018-04-27T11:35:55.494Z,33.90
2018-04-27T11:38:25.167Z,34.50
2018-04-27T11:40:54.738Z,34.00
2018-04-27T11:43:24.256Z,33.80
2018-04-27T11:45:54.889Z,34.10
2018-04-27T11:48:24.835Z,33.60
2018-04-27T11:50:54.639Z,33.50
2018-04-27T11:53:24.617Z,33.20
2018-04-27T11:55:55.792Z,29.80
2018-04-27T11:58:26.547Z,29.80
2018-04-27T12:00:56.417Z,29.20
2018-04-27T12:03:27.025Z,28.50
2018-04-27T12:05:57.165Z,28.40
2018-04-27T12:08:27.919Z,28.20
2018-04-27T12:10:57.878Z,28.10
2018-04-27T12:13:27.576Z,28.20
2018-04-27T12:15:58.038Z,28.00
2018-04-27T12:18:28.014Z,27.90
2018-04-27T12:20:58.261Z,28.50
2018-04-27T12:23:27.828Z,28.40
2018-04-27T12:25:58.177Z,28.70
2018-04-27T12:28:28.573Z,28.70
2018-04-27T12:30:58.161Z,28.60
2018-04-27T12:33:27.647Z,28.60
2018-04-27T12:35:57.293Z,28.60
2018-04-27T12:38:26.950Z,28.60
2018-04-27T12:40:56.565Z,28.20
2018-04-27T12:43:26.228Z,27.60
2018-04-27T12:45:55.866Z,27.60
2018-04-27T12:48:26.354Z,28.00
2018-04-27T12:50:57.096Z,28.10
2018-04-27T12:53:26.803Z,28.00
2018-04-27T12:55:56.474Z,28.00
2018-04-27T12:58:26.142Z,27.90
2018-04-27T13:00:55.826Z,28.00
2018-04-27T13:03:25.687Z,28.00
2018-04-27T13:05:56.281Z,28.00
2018-04-27T13:08:26.705Z,28.00
2018-04-27T13:10:57.199Z,28.10
2018-04-27T13:13:27.579Z,28.10
2018-04-27T13:15:58.048Z,27.90
2018-04-27T13:18:27.833Z,27.80
2018-04-27T13:20:57.922Z,27.90
2018-04-27T13:23:27.457Z,28.30
2018-04-27T13:25:57.001Z,28.80
2018-04-27T13:28:26.484Z,28.90
2018-04-27T13:30:56.941Z,27.90
2018-04-27T13:33:26.822Z,27.80
2018-04-27T13:35:56.599Z,27.50
2018-04-27T13:38:26.140Z,27.40
2018-04-27T13:40:56.733Z,27.50
2018-04-27T13:43:26.339Z,27.40
2018-04-27T13:45:55.884Z,27.70
2018-04-27T13:48:26.479Z,27.60
2018-04-27T13:50:56.177Z,27.50
2018-04-27T13:53:25.877Z,27.10
2018-04-27T13:55:55.624Z,26.70
2018-04-27T13:58:45.671Z,26.50
2018-04-27T14:01:41.265Z,26.20
2018-04-27T14:08:58.066Z,26.40
2018-04-27T14:11:27.984Z,26.40
2018-04-27T14:13:57.748Z,26.50
2018-04-27T14:16:27.868Z,26.50
2018-04-27T14:18:58.541Z,26.80
2018-04-27T14:21:28.276Z,26.70
2018-04-27T14:23:57.804Z,26.70
2018-04-27T14:26:27.358Z,26.70
2018-04-27T14:28:56.980Z,26.90
2018-04-27T14:31:26.504Z,26.80
2018-04-27T14:33:57.516Z,26.50
2018-04-27T14:36:27.123Z,26.50
2018-04-27T14:38:56.832Z,26.50
2018-04-27T14:41:26.554Z,26.70
2018-04-27T14:43:56.857Z,26.90
2018-04-27T14:46:26.386Z,26.80
2018-04-27T14:48:55.947Z,26.80
2018-04-27T14:51:25.611Z,26.70
2018-04-27T14:53:55.291Z,26.90
2018-04-27T14:56:24.930Z,27.00
2018-04-27T14:58:55.547Z,27.00
